RCKH

Kaohsiung International Airport

Airport
ICAO code
RCKH
IATA Code
KHH
Summary
ICAO Region
APAC
ICAO Territory
Location

Kaohsiung City,

Serving
Kaohsiung City
Elevation
30 ft
Coordinates
22° 34' 30" N , 120° 21' 1" E
KCC
Metar
RCKH 150200Z VRB05KT 9999 SCT010 SCT025 BKN120 32/26 Q1008 NOSIG RMK A2977

Description

Kaohsiung International Airport, also known as Kaohsiung Siaogang Airport for the Siaogang District where it is located, is a medium-sized commercial airport located in Kaohsiung City, Taiwan.

Climatology

Tropical Savanna climate (Köppen climate classification Aw) - monthly mean temperature above 18°C in every month of the year and a pronounced dry season.

Runways

Designator Length Width Surface Rops
9/27 3150 60 CON Yes/Yes

Airport map

Aerial View

SKYbrary Partners:

Safety knowledge contributed by: